04:16
Airports
History
Links
Donate
Help keep this website running!
PayPal
Bitcoin
Information on this page is community maintained and may be outdated or inaccurate and is intended for reference only or PC simulator navigating!
Always use approved charts for navigating.
EDBZ
Schwarzheide Schipkau
Schwarzheide Schipkau (EDBZ)
Schwarzheide, Brandenburg, Germany (1987)
4
Lat/Lng:51° 29' 29.98" N / 13° 52' 48" E
51.491661 / 13.88
Elevation:331'ft 101mMSL
ID / ICAO:EDBZ
Runways:1
Longest:(09-27) 692.0m 2,270ft Grass
Distance To
Airport ID:
Nearby VORs <50NM
Nearby NDBs
Nearby WeatherUpdated 03-28-17 03:50 GMT
Nearby weather at EDDC, Dresden located 25.3 nautical miles from EDBZ
Altimeter: 30.18
Visibility: 6.2 statute miles
Wind: 5 knots (200°)
Temp: 4°c 39°f
Humidity: 69.8%

METAR: EDDC 280350Z 20005KT CAVOK 04/M01 Q1022 NOSIG

(Powered by phpweather)
Runway 09 / 27
Dimensions:692 x 22.9m 2270' x 75'ft
Surface:Grass
Runway 09 [A]Runway 27 [B]
Heading:091°TH 271°TH
Lat:
Lng:
51° 29' 30.18"N
13° 52' 29.8"E
51° 29' 29.78"N
13° 53' 6.2"E
Google Map
Nearby Airports
(U) FINSTERWALDE SCHACKSDORF 10.0 NM
EDUS NW 322°
4 Bronkow 12.5 NM
EDBQ NNE 15°
(U) SPREMBERG WELZOW 12.7 NM
EDCY ENE 61°
4 Finsterwalde 13.3 NM
EDAS NW 318°
(U) KAMENZ 17.2 NM
EDCM SE 141°
(U) GROSSENHAIN 18.9 NM
EDAK SW 227°
(C) Dresden 25.3 NM
EDDC (WX) S 191°
VFR Chart
Flight Planning at SkyVector.com